KBLH/BLH METAR and TAF weather

Enter ICAO airport designator
Station Type Date Time Source
KBLH METAR 2019/06/26 19:52 UTC NOAA

KBLH 261952Z AUTO 18012KT 10SM CLR 36/01 A2983 RMK AO2 SLP095 T03610011 $


Station Type Date Time Source
KBLH Decoded METAR 2019/06/26 19:52 UTC NOAA

BLYTHE AIRPORT, CA, United States (KBLH) 33-37N 114-43W 119M
Jun 26, 2019 - 03:52 PM EDT / 2019.06.26 1952 UTC
Wind: from the S (180 degrees) at 14 MPH (12 KT):0
Visibility: 10 mile(s):0
Sky conditions: clear
Temperature: 97.0 F (36.1 C)
Dew Point: 34.0 F (1.1 C)
Relative Humidity: 11%
Pressure (altimeter): 29.83 in. Hg (1010 hPa)
ob: KBLH 261952Z AUTO 18012KT 10SM CLR 36/01 A2983 RMK AO2 SLP095 T03610011
cycle: 20

Station Type Date Time Source
KBLH TAF 2019/06/26 18:22 UTC NOAA

TAF KBLH 261720Z 2618/2718 17015KT P6SM BKN250
FM270500 20007KT P6SM SKC
FM271200 VRB03KT P6SM SKC

Example: see airport list